Thomas D. Witte — WDD8916 — position and weather

sailwx.info

Track history (hours):
 
Tides and Currents Weather Stations Pressure Air Temp Water Temp Dewpoint Dewpoint Depression Visibility Wind Speed Wind Dir Waves Ship Positions

Thomas D. Witte

Owner: Donjon Marine Co., Inc., Hillside, NJ. More information available from US FCC via Universal Licensing System and Coast Guard Vessel Documentation Center.

Last reported at 2018-Jan-18 07:30 UTC. Time now 2018-Jan-18 07:59 UTC.
Position N 40°39' W 074°04'.

Length 19 m.

Type: Other ship. MMSI: 367304530.

Date/timePositionNaut miles runAvg speedWind from/ knotsBaromVisibWave heightAir tempDewpointWater temp
2018-Jan-18 07:30N 40°39' W 074°04'2 4.4
2018-Jan-18 07:00N 40°37' W 074°03'3 2.3
2018-Jan-18 05:30N 40°33' W 074°02'611.6
2018-Jan-18 05:01N 40°39' W 074°04'3 6.8
2018-Jan-18 04:30N 40°40' W 074°08'1 1.4
2018-Jan-18 04:00N 40°41' W 074°08'0 0.4
2018-Jan-18 03:30N 40°41' W 074°09'0 0.0
2018-Jan-18 03:00N 40°41' W 074°09'0 0.2
2018-Jan-18 02:30N 40°41' W 074°09'0 0.8
2018-Jan-18 01:58N 40°41' W 074°08'0 0.1
2018-Jan-18 01:30N 40°41' W 074°08'0 0.1
2018-Jan-18 01:00N 40°41' W 074°08'1 1.0
2018-Jan-17 23:58N 40°42' W 074°09'0 0.2
2018-Jan-17 23:55N 40°42' W 074°09'  
2018-Jan-12 14:55N 40°36' W 074°12'3 7.6
2018-Jan-12 14:30N 40°39' W 074°10'4 8.6
2018-Jan-12 14:01N 40°39' W 074°04'2 3.4
2018-Jan-12 13:31N 40°41' W 074°05'0 0.0
2018-Jan-12 13:00N 40°41' W 074°05'0 0.0
2018-Jan-12 12:30N 40°41' W 074°05'0 0.0
2018-Jan-12 12:00N 40°41' W 074°05'0 0.0
2018-Jan-12 11:30N 40°41' W 074°05'0 0.0
2018-Jan-12 11:00N 40°41' W 074°05'0 0.0
2018-Jan-12 10:30N 40°41' W 074°05'0 0.2
2018-Jan-12 10:00N 40°41' W 074°04'0 0.0
2018-Jan-12 09:30N 40°41' W 074°04'0 0.0
2018-Jan-12 09:00N 40°41' W 074°04'0 0.1
2018-Jan-12 08:30N 40°41' W 074°05'0 0.1
2018-Jan-12 08:00N 40°41' W 074°05'0 0.0
2018-Jan-12 07:30N 40°41' W 074°05'0 0.0
2018-Jan-12 07:00N 40°41' W 074°05'0 0.2
2018-Jan-12 06:28N 40°41' W 074°04'0 0.1
2018-Jan-12 06:00N 40°41' W 074°05'0 0.0
2018-Jan-12 05:30N 40°41' W 074°04'0 0.0
2018-Jan-12 05:00N 40°41' W 074°04'0 0.1
2018-Jan-12 04:30N 40°41' W 074°05'0 0.0
2018-Jan-12 04:00N 40°41' W 074°05'1 2.4
2018-Jan-12 03:30N 40°41' W 074°03'4 7.3
2018-Jan-12 03:00N 40°42' W 073°59'2 4.8
2018-Jan-12 02:30N 40°44' W 073°57'1 0.5
2018-Jan-11 23:37N 40°46' W 073°57'1 8.0
2018-Jan-11 23:30N 40°45' W 073°58'1 2.0
2018-Jan-11 22:58N 40°44' W 073°57'1 2.0
2018-Jan-11 22:15N 40°43' W 073°56'1 1.7
2018-Jan-11 21:23N 40°44' W 073°57'1 1.3
2018-Jan-11 20:55N 40°44' W 073°58'3 8.4
2018-Jan-11 20:30N 40°42' W 074°01'3 5.9
2018-Jan-11 20:00N 40°41' W 074°04'0 0.5
2018-Jan-11 19:29N 40°41' W 074°05'0 0.0
2018-Jan-11 19:00N 40°41' W 074°05'0 0.0
2018-Jan-11 18:30N 40°41' W 074°05'0 0.0
2018-Jan-11 18:00N 40°41' W 074°05'0 0.0
2018-Jan-11 17:30N 40°41' W 074°05'0 0.0
2018-Jan-11 16:59N 40°41' W 074°05'0 0.1
2018-Jan-11 16:30N 40°41' W 074°05'0 0.0
2018-Jan-11 16:00N 40°41' W 074°05'0 0.1
2018-Jan-11 15:30N 40°41' W 074°05'0 0.0
2018-Jan-11 15:00N 40°41' W 074°05'3 5.3
2018-Jan-11 14:30N 40°42' W 074°01'4 8.1
2018-Jan-11 14:00N 40°46' W 073°60'1 2.3
2018-Jan-11 13:30N 40°45' W 074°01'3 6.9
2018-Jan-11 13:00N 40°42' W 074°02'3 6.5
2018-Jan-11 12:30N 40°39' W 074°04'3 1.1
2018-Jan-11 09:36N 40°39' W 074°09'2 4.3
2018-Jan-11 09:10N 40°39' W 074°06'1 5.5
2018-Jan-11 09:00N 40°39' W 074°05'3 5.9
2018-Jan-11 08:30N 40°41' W 074°02'3 6.0
2018-Jan-11 08:00N 40°44' W 074°01'3 4.9
2018-Jan-11 07:29N 40°46' W 074°00'0 0.1
2018-Jan-11 01:37N 40°46' W 073°60'1 7.1
2018-Jan-11 01:26N 40°45' W 074°01'3 7.9
2018-Jan-11 01:00N 40°42' W 074°01'4 0.9
2018-Jan-10 19:57N 40°46' W 073°57'410.1
2018-Jan-10 19:30N 40°42' W 074°00'5 9.3
2018-Jan-10 19:00N 40°39' W 074°05'3 5.3
2018-Jan-10 18:30N 40°40' W 074°08'2 2.0
2018-Jan-10 17:32N 40°42' W 074°09'0 0.5
2018-Jan-10 17:20N 40°42' W 074°09'0 0.0
2018-Jan-10 17:01N 40°42' W 074°09'0 0.0
2018-Jan-10 16:30N 40°42' W 074°09'0 0.0
2018-Jan-10 16:00N 40°42' W 074°09'0 0.0
2018-Jan-10 15:29N 40°42' W 074°09'0 0.0
2018-Jan-10 14:59N 40°42' W 074°09'1 2.2
2018-Jan-10 14:19N 40°41' W 074°08'2 5.2
2018-Jan-10 13:52N 40°39' W 074°08'3 7.3
2018-Jan-10 13:30N 40°39' W 074°05'3 6.1
2018-Jan-10 12:59N 40°37' W 074°03'3 0.1
2018-Jan-09 17:13N 40°34' W 074°01'2 6.7
2018-Jan-09 16:55N 40°36' W 074°02'3 7.0
2018-Jan-09 16:30N 40°39' W 074°04'2 3.8
2018-Jan-09 16:00N 40°41' W 074°03'0 0.0
2018-Jan-09 15:30N 40°41' W 074°03'0 0.0
2018-Jan-09 15:01N 40°41' W 074°03'0 0.0
2018-Jan-09 14:31N 40°41' W 074°03'0 0.0
2018-Jan-09 14:01N 40°41' W 074°03'0 0.0
2018-Jan-09 13:31N 40°41' W 074°03'0 0.0
2018-Jan-09 13:00N 40°41' W 074°03'0 0.0
2018-Jan-09 12:31N 40°41' W 074°03'0 0.8
2018-Jan-09 12:01N 40°40' W 074°03'3 5.0
2018-Jan-09 11:28N 40°38' W 074°04'2 3.7
2018-Jan-09 11:01N 40°39' W 074°04'1 2.3
2018-Jan-09 10:31N 40°40' W 074°04'1 2.4
2018-Jan-09 10:00N 40°41' W 074°05'0 0.0
2018-Jan-09 09:30N 40°41' W 074°05'0 0.1
2018-Jan-09 09:01N 40°41' W 074°05'0 0.1
2018-Jan-09 08:30N 40°41' W 074°05'0 0.0
2018-Jan-09 08:00N 40°41' W 074°05'0 0.0
2018-Jan-09 07:30N 40°41' W 074°05'0 0.0
2018-Jan-09 06:57N 40°41' W 074°05'0 0.0
2018-Jan-09 06:20N 40°41' W 074°05'0 0.1
2018-Jan-09 06:00N 40°41' W 074°05'0 0.0
2018-Jan-09 05:31N 40°41' W 074°05'0 0.0
2018-Jan-09 05:01N 40°41' W 074°05'0 0.0
2018-Jan-09 04:30N 40°41' W 074°05'0 0.0
2018-Jan-09 04:00N 40°41' W 074°05'0 0.3
2018-Jan-09 03:28N 40°41' W 074°04'0 0.1
2018-Jan-09 02:52N 40°41' W 074°05'1 2.1
2018-Jan-09 02:30N 40°41' W 074°04'2 4.9
2018-Jan-09 02:00N 40°41' W 074°01'2 1.3
2018-Jan-09 00:10N 40°43' W 073°58'1 3.1
2018-Jan-08 23:44N 40°42' W 073°60'1 4.2
2018-Jan-08 23:30N 40°41' W 074°01'2 4.3
2018-Jan-08 23:00N 40°40' W 074°03'1 2.6
2018-Jan-08 22:26N 40°41' W 074°04'1 1.8
2018-Jan-08 22:00N 40°41' W 074°04'2 4.8
2018-Jan-08 21:30N 40°41' W 074°01'1 0.2
2018-Jan-08 17:38N 40°42' W 074°00'1 8.2
2018-Jan-08 17:30N 40°41' W 074°01'3 5.0
2018-Jan-08 16:57N 40°41' W 074°04'0 0.1
2018-Jan-08 16:30N 40°41' W 074°05'0 0.3
2018-Jan-08 15:58N 40°41' W 074°04'3 6.7
2018-Jan-08 15:31N 40°38' W 074°03'  
Track history (hours):
 
Tides and Currents Weather Stations Pressure Air Temp Water Temp Dewpoint Dewpoint Depression Visibility Wind Speed Wind Dir Waves Ship Positions

Thomas D. Witte

Owner: Donjon Marine Co., Inc., Hillside, NJ. More information available from US FCC via Universal Licensing System and Coast Guard Vessel Documentation Center.

Last reported at 2018-Jan-18 07:30 UTC. Time now 2018-Jan-18 08:00 UTC.
Position N 40°39' W 074°04'.

Length 19 m.

Type: Other ship. MMSI: 367304530.

Date/timePositionNaut miles runAvg speedWind from/ knotsBaromVisibWave heightAir tempDewpointWater temp
2018-Jan-18 07:30N 40°39' W 074°04'2 4.4
2018-Jan-18 07:00N 40°37' W 074°03'3 2.3
2018-Jan-18 05:30N 40°33' W 074°02'611.6
2018-Jan-18 05:01N 40°39' W 074°04'3 6.8
2018-Jan-18 04:30N 40°40' W 074°08'1 1.4
2018-Jan-18 04:00N 40°41' W 074°08'0 0.4
2018-Jan-18 03:30N 40°41' W 074°09'0 0.0
2018-Jan-18 03:00N 40°41' W 074°09'0 0.2
2018-Jan-18 02:30N 40°41' W 074°09'0 0.8
2018-Jan-18 01:58N 40°41' W 074°08'0 0.1
2018-Jan-18 01:30N 40°41' W 074°08'0 0.1
2018-Jan-18 01:00N 40°41' W 074°08'1 1.0
2018-Jan-17 23:58N 40°42' W 074°09'0 0.2
2018-Jan-17 23:55N 40°42' W 074°09'  
2018-Jan-12 14:55N 40°36' W 074°12'3 7.6
2018-Jan-12 14:30N 40°39' W 074°10'4 8.6
2018-Jan-12 14:01N 40°39' W 074°04'2 3.4
2018-Jan-12 13:31N 40°41' W 074°05'0 0.0
2018-Jan-12 13:00N 40°41' W 074°05'0 0.0
2018-Jan-12 12:30N 40°41' W 074°05'0 0.0
2018-Jan-12 12:00N 40°41' W 074°05'0 0.0
2018-Jan-12 11:30N 40°41' W 074°05'0 0.0
2018-Jan-12 11:00N 40°41' W 074°05'0 0.0
2018-Jan-12 10:30N 40°41' W 074°05'0 0.2
2018-Jan-12 10:00N 40°41' W 074°04'0 0.0
2018-Jan-12 09:30N 40°41' W 074°04'0 0.0
2018-Jan-12 09:00N 40°41' W 074°04'0 0.1
2018-Jan-12 08:30N 40°41' W 074°05'0 0.1
2018-Jan-12 08:00N 40°41' W 074°05'0 0.0
2018-Jan-12 07:30N 40°41' W 074°05'0 0.0
2018-Jan-12 07:00N 40°41' W 074°05'0 0.2
2018-Jan-12 06:28N 40°41' W 074°04'0 0.1
2018-Jan-12 06:00N 40°41' W 074°05'0 0.0
2018-Jan-12 05:30N 40°41' W 074°04'0 0.0
2018-Jan-12 05:00N 40°41' W 074°04'0 0.1
2018-Jan-12 04:30N 40°41' W 074°05'0 0.0
2018-Jan-12 04:00N 40°41' W 074°05'1 2.4
2018-Jan-12 03:30N 40°41' W 074°03'4 7.3
2018-Jan-12 03:00N 40°42' W 073°59'2 4.8
2018-Jan-12 02:30N 40°44' W 073°57'1 0.5
2018-Jan-11 23:37N 40°46' W 073°57'1 8.0
2018-Jan-11 23:30N 40°45' W 073°58'1 2.0
2018-Jan-11 22:58N 40°44' W 073°57'1 2.0
2018-Jan-11 22:15N 40°43' W 073°56'1 1.7
2018-Jan-11 21:23N 40°44' W 073°57'1 1.3
2018-Jan-11 20:55N 40°44' W 073°58'3 8.4
2018-Jan-11 20:30N 40°42' W 074°01'3 5.9
2018-Jan-11 20:00N 40°41' W 074°04'0 0.5
2018-Jan-11 19:29N 40°41' W 074°05'0 0.0
2018-Jan-11 19:00N 40°41' W 074°05'0 0.0
2018-Jan-11 18:30N 40°41' W 074°05'0 0.0
2018-Jan-11 18:00N 40°41' W 074°05'0 0.0
2018-Jan-11 17:30N 40°41' W 074°05'0 0.0
2018-Jan-11 16:59N 40°41' W 074°05'0 0.1
2018-Jan-11 16:30N 40°41' W 074°05'0 0.0
2018-Jan-11 16:00N 40°41' W 074°05'0 0.1
2018-Jan-11 15:30N 40°41' W 074°05'0 0.0
2018-Jan-11 15:00N 40°41' W 074°05'3 5.3
2018-Jan-11 14:30N 40°42' W 074°01'4 8.1
2018-Jan-11 14:00N 40°46' W 073°60'1 2.3
2018-Jan-11 13:30N 40°45' W 074°01'3 6.9
2018-Jan-11 13:00N 40°42' W 074°02'3 6.5
2018-Jan-11 12:30N 40°39' W 074°04'3 1.1
2018-Jan-11 09:36N 40°39' W 074°09'2 4.3
2018-Jan-11 09:10N 40°39' W 074°06'1 5.5
2018-Jan-11 09:00N 40°39' W 074°05'3 5.9
2018-Jan-11 08:30N 40°41' W 074°02'3 6.0
2018-Jan-11 08:00N 40°44' W 074°01'3 4.9
2018-Jan-11 07:29N 40°46' W 074°00'0 0.1
2018-Jan-11 01:37N 40°46' W 073°60'1 7.1
2018-Jan-11 01:26N 40°45' W 074°01'3 7.9
2018-Jan-11 01:00N 40°42' W 074°01'4 0.9
2018-Jan-10 19:57N 40°46' W 073°57'410.1
2018-Jan-10 19:30N 40°42' W 074°00'5 9.3
2018-Jan-10 19:00N 40°39' W 074°05'3 5.3
2018-Jan-10 18:30N 40°40' W 074°08'2 2.0
2018-Jan-10 17:32N 40°42' W 074°09'0 0.5
2018-Jan-10 17:20N 40°42' W 074°09'0 0.0
2018-Jan-10 17:01N 40°42' W 074°09'0 0.0
2018-Jan-10 16:30N 40°42' W 074°09'0 0.0
2018-Jan-10 16:00N 40°42' W 074°09'0 0.0
2018-Jan-10 15:29N 40°42' W 074°09'0 0.0
2018-Jan-10 14:59N 40°42' W 074°09'1 2.2
2018-Jan-10 14:19N 40°41' W 074°08'2 5.2
2018-Jan-10 13:52N 40°39' W 074°08'3 7.3
2018-Jan-10 13:30N 40°39' W 074°05'3 6.1
2018-Jan-10 12:59N 40°37' W 074°03'3 0.1
2018-Jan-09 17:13N 40°34' W 074°01'2 6.7
2018-Jan-09 16:55N 40°36' W 074°02'3 7.0
2018-Jan-09 16:30N 40°39' W 074°04'2 3.8
2018-Jan-09 16:00N 40°41' W 074°03'0 0.0
2018-Jan-09 15:30N 40°41' W 074°03'0 0.0
2018-Jan-09 15:01N 40°41' W 074°03'0 0.0
2018-Jan-09 14:31N 40°41' W 074°03'0 0.0
2018-Jan-09 14:01N 40°41' W 074°03'0 0.0
2018-Jan-09 13:31N 40°41' W 074°03'0 0.0
2018-Jan-09 13:00N 40°41' W 074°03'0 0.0
2018-Jan-09 12:31N 40°41' W 074°03'0 0.8
2018-Jan-09 12:01N 40°40' W 074°03'3 5.0
2018-Jan-09 11:28N 40°38' W 074°04'2 3.7
2018-Jan-09 11:01N 40°39' W 074°04'1 2.3
2018-Jan-09 10:31N 40°40' W 074°04'1 2.4
2018-Jan-09 10:00N 40°41' W 074°05'0 0.0
2018-Jan-09 09:30N 40°41' W 074°05'0 0.1
2018-Jan-09 09:01N 40°41' W 074°05'0 0.1
2018-Jan-09 08:30N 40°41' W 074°05'0 0.0
2018-Jan-09 08:00N 40°41' W 074°05'0 0.0
2018-Jan-09 07:30N 40°41' W 074°05'0 0.0
2018-Jan-09 06:57N 40°41' W 074°05'0 0.0
2018-Jan-09 06:20N 40°41' W 074°05'0 0.1
2018-Jan-09 06:00N 40°41' W 074°05'0 0.0
2018-Jan-09 05:31N 40°41' W 074°05'0 0.0
2018-Jan-09 05:01N 40°41' W 074°05'0 0.0
2018-Jan-09 04:30N 40°41' W 074°05'0 0.0
2018-Jan-09 04:00N 40°41' W 074°05'0 0.3
2018-Jan-09 03:28N 40°41' W 074°04'0 0.1
2018-Jan-09 02:52N 40°41' W 074°05'1 2.1
2018-Jan-09 02:30N 40°41' W 074°04'2 4.9
2018-Jan-09 02:00N 40°41' W 074°01'2 1.3
2018-Jan-09 00:10N 40°43' W 073°58'1 3.1
2018-Jan-08 23:44N 40°42' W 073°60'1 4.2
2018-Jan-08 23:30N 40°41' W 074°01'2 4.3
2018-Jan-08 23:00N 40°40' W 074°03'1 2.6
2018-Jan-08 22:26N 40°41' W 074°04'1 1.8
2018-Jan-08 22:00N 40°41' W 074°04'2 4.8
2018-Jan-08 21:30N 40°41' W 074°01'1 0.2
2018-Jan-08 17:38N 40°42' W 074°00'1 8.2
2018-Jan-08 17:30N 40°41' W 074°01'3 5.0
2018-Jan-08 16:57N 40°41' W 074°04'0 0.1
2018-Jan-08 16:30N 40°41' W 074°05'0 0.3
2018-Jan-08 15:58N 40°41' W 074°04'3 6.7
2018-Jan-08 15:31N 40°38' W 074°03'  

Dump ship's entire track history